sensor_id;sensor_type;location;lat;lon;timestamp;P1;durP1;ratioP1;P2;durP2;ratioP2
65613;SDS011;52283;49.292;10.572;2024-03-02T00:00:03;30.85;;;14.63;;
65613;SDS011;52283;49.292;10.572;2024-03-02T00:02:39;28.83;;;13.20;;
65613;SDS011;52283;49.292;10.572;2024-03-02T00:05:06;24.35;;;12.57;;
65613;SDS011;52283;49.292;10.572;2024-03-02T00:07:34;27.88;;;13.35;;
65613;SDS011;52283;49.292;10.572;2024-03-02T00:10:01;24.55;;;12.60;;
65613;SDS011;52283;49.292;10.572;2024-03-02T00:12:34;25.38;;;13.93;;
65613;SDS011;52283;49.292;10.572;2024-03-02T00:15:00;24.58;;;13.23;;
65613;SDS011;52283;49.292;10.572;2024-03-02T00:17:27;31.38;;;14.52;;
65613;SDS011;52283;49.292;10.572;2024-03-02T00:19:55;27.63;;;13.07;;
65613;SDS011;52283;49.292;10.572;2024-03-02T00:22:22;27.45;;;13.00;;
65613;SDS011;52283;49.292;10.572;2024-03-02T00:24:50;27.63;;;13.77;;
65613;SDS011;52283;49.292;10.572;2024-03-02T00:27:16;25.42;;;13.60;;
65613;SDS011;52283;49.292;10.572;2024-03-02T00:29:46;26.60;;;14.10;;
65613;SDS011;52283;49.292;10.572;2024-03-02T00:32:12;28.80;;;14.10;;
65613;SDS011;52283;49.292;10.572;2024-03-02T00:34:40;30.10;;;14.20;;
65613;SDS011;52283;49.292;10.572;2024-03-02T00:37:06;29.60;;;14.85;;
65613;SDS011;52283;49.292;10.572;2024-03-02T00:39:33;29.92;;;14.93;;
65613;SDS011;52283;49.292;10.572;2024-03-02T00:42:02;31.38;;;14.55;;
65613;SDS011;52283;49.292;10.572;2024-03-02T00:44:29;27.38;;;13.02;;
65613;SDS011;52283;49.292;10.572;2024-03-02T00:49:27;33.70;;;15.18;;
65613;SDS011;52283;49.292;10.572;2024-03-02T00:51:54;29.40;;;14.95;;
65613;SDS011;52283;49.292;10.572;2024-03-02T00:54:21;30.73;;;14.98;;
65613;SDS011;52283;49.292;10.572;2024-03-02T00:56:49;31.25;;;15.98;;
65613;SDS011;52283;49.292;10.572;2024-03-02T00:59:17;28.58;;;13.52;;
65613;SDS011;52283;49.292;10.572;2024-03-02T01:01:44;37.20;;;16.10;;
65613;SDS011;52283;49.292;10.572;2024-03-02T01:04:10;31.45;;;15.25;;
65613;SDS011;52283;49.292;10.572;2024-03-02T01:06:39;38.03;;;16.45;;
65613;SDS011;52283;49.292;10.572;2024-03-02T01:09:06;29.75;;;13.90;;
65613;SDS011;52283;49.292;10.572;2024-03-02T01:11:32;35.00;;;14.63;;
65613;SDS011;52283;49.292;10.572;2024-03-02T01:13:59;38.95;;;16.17;;
65613;SDS011;52283;49.292;10.572;2024-03-02T01:16:27;29.17;;;13.95;;
65613;SDS011;52283;49.292;10.572;2024-03-02T01:18:54;28.15;;;14.10;;
65613;SDS011;52283;49.292;10.572;2024-03-02T01:21:21;32.42;;;15.90;;
65613;SDS011;52283;49.292;10.572;2024-03-02T01:23:47;33.55;;;15.75;;
65613;SDS011;52283;49.292;10.572;2024-03-02T01:26:14;32.67;;;14.75;;
65613;SDS011;52283;49.292;10.572;2024-03-02T01:28:40;36.42;;;15.82;;
65613;SDS011;52283;49.292;10.572;2024-03-02T01:31:07;29.48;;;15.48;;
65613;SDS011;52283;49.292;10.572;2024-03-02T01:33:35;35.30;;;14.57;;
65613;SDS011;52283;49.292;10.572;2024-03-02T01:36:01;31.17;;;14.70;;
65613;SDS011;52283;49.292;10.572;2024-03-02T01:38:28;28.15;;;14.20;;
65613;SDS011;52283;49.292;10.572;2024-03-02T01:40:54;33.33;;;15.23;;
65613;SDS011;52283;49.292;10.572;2024-03-02T01:43:21;27.08;;;12.90;;
65613;SDS011;52283;49.292;10.572;2024-03-02T01:45:48;30.00;;;13.43;;
65613;SDS011;52283;49.292;10.572;2024-03-02T01:48:15;31.05;;;15.10;;
65613;SDS011;52283;49.292;10.572;2024-03-02T01:50:43;31.02;;;14.25;;
65613;SDS011;52283;49.292;10.572;2024-03-02T01:53:10;31.23;;;14.30;;
65613;SDS011;52283;49.292;10.572;2024-03-02T01:55:38;32.58;;;13.63;;
65613;SDS011;52283;49.292;10.572;2024-03-02T01:58:04;29.50;;;15.18;;
65613;SDS011;52283;49.292;10.572;2024-03-02T02:00:31;29.25;;;13.90;;
65613;SDS011;52283;49.292;10.572;2024-03-02T02:02:59;34.38;;;14.55;;
65613;SDS011;52283;49.292;10.572;2024-03-02T02:05:25;29.10;;;13.05;;
65613;SDS011;52283;49.292;10.572;2024-03-02T02:07:54;30.30;;;14.23;;
65613;SDS011;52283;49.292;10.572;2024-03-02T02:10:23;33.90;;;15.95;;
65613;SDS011;52283;49.292;10.572;2024-03-02T02:12:50;30.33;;;14.63;;
65613;SDS011;52283;49.292;10.572;2024-03-02T02:15:23;33.28;;;14.27;;
65613;SDS011;52283;49.292;10.572;2024-03-02T02:17:54;34.10;;;14.77;;
65613;SDS011;52283;49.292;10.572;2024-03-02T02:20:21;34.92;;;14.85;;
65613;SDS011;52283;49.292;10.572;2024-03-02T02:22:58;38.97;;;14.60;;
65613;SDS011;52283;49.292;10.572;2024-03-02T02:25:26;30.20;;;13.40;;
65613;SDS011;52283;49.292;10.572;2024-03-02T02:27:53;27.75;;;13.77;;
65613;SDS011;52283;49.292;10.572;2024-03-02T02:30:20;27.75;;;13.18;;
65613;SDS011;52283;49.292;10.572;2024-03-02T02:32:48;28.77;;;12.82;;
65613;SDS011;52283;49.292;10.572;2024-03-02T02:35:14;31.42;;;14.32;;
65613;SDS011;52283;49.292;10.572;2024-03-02T02:37:41;32.80;;;14.73;;
65613;SDS011;52283;49.292;10.572;2024-03-02T02:40:11;35.35;;;13.55;;
65613;SDS011;52283;49.292;10.572;2024-03-02T02:42:38;34.45;;;14.70;;
65613;SDS011;52283;49.292;10.572;2024-03-02T02:45:05;30.83;;;14.50;;
65613;SDS011;52283;49.292;10.572;2024-03-02T02:47:33;28.73;;;13.30;;
65613;SDS011;52283;49.292;10.572;2024-03-02T02:50:00;27.90;;;13.68;;
65613;SDS011;52283;49.292;10.572;2024-03-02T02:52:33;30.83;;;13.88;;
65613;SDS011;52283;49.292;10.572;2024-03-02T02:55:01;29.20;;;13.00;;
65613;SDS011;52283;49.292;10.572;2024-03-02T02:57:31;25.50;;;11.63;;
65613;SDS011;52283;49.292;10.572;2024-03-02T03:00:01;26.23;;;12.02;;
65613;SDS011;52283;49.292;10.572;2024-03-02T03:02:35;26.98;;;13.18;;
65613;SDS011;52283;49.292;10.572;2024-03-02T03:05:04;26.40;;;12.50;;
65613;SDS011;52283;49.292;10.572;2024-03-02T03:07:32;27.48;;;12.73;;
65613;SDS011;52283;49.292;10.572;2024-03-02T03:09:59;33.72;;;14.02;;
65613;SDS011;52283;49.292;10.572;2024-03-02T03:12:26;27.98;;;13.45;;
65613;SDS011;52283;49.292;10.572;2024-03-02T03:14:54;26.55;;;12.68;;
65613;SDS011;52283;49.292;10.572;2024-03-02T03:17:21;31.52;;;13.05;;
65613;SDS011;52283;49.292;10.572;2024-03-02T03:19:48;28.58;;;13.77;;
65613;SDS011;52283;49.292;10.572;2024-03-02T03:22:14;31.67;;;13.73;;
65613;SDS011;52283;49.292;10.572;2024-03-02T03:24:41;30.50;;;13.43;;
65613;SDS011;52283;49.292;10.572;2024-03-02T03:27:07;29.88;;;13.60;;
65613;SDS011;52283;49.292;10.572;2024-03-02T03:29:35;32.60;;;12.93;;
65613;SDS011;52283;49.292;10.572;2024-03-02T03:32:03;29.23;;;13.95;;
65613;SDS011;52283;49.292;10.572;2024-03-02T03:34:32;29.95;;;14.40;;
65613;SDS011;52283;49.292;10.572;2024-03-02T03:36:58;27.38;;;13.13;;
65613;SDS011;52283;49.292;10.572;2024-03-02T03:39:25;27.58;;;13.10;;
65613;SDS011;52283;49.292;10.572;2024-03-02T03:41:52;28.40;;;13.40;;
65613;SDS011;52283;49.292;10.572;2024-03-02T03:44:18;28.48;;;12.75;;
65613;SDS011;52283;49.292;10.572;2024-03-02T03:46:45;30.10;;;14.02;;
65613;SDS011;52283;49.292;10.572;2024-03-02T03:49:13;29.48;;;13.38;;
65613;SDS011;52283;49.292;10.572;2024-03-02T03:51:42;29.00;;;14.27;;
65613;SDS011;52283;49.292;10.572;2024-03-02T03:54:09;34.95;;;14.45;;
65613;SDS011;52283;49.292;10.572;2024-03-02T03:56:36;29.00;;;13.15;;
65613;SDS011;52283;49.292;10.572;2024-03-02T03:59:03;30.13;;;13.45;;
65613;SDS011;52283;49.292;10.572;2024-03-02T04:01:29;28.75;;;12.50;;
65613;SDS011;52283;49.292;10.572;2024-03-02T04:03:56;37.65;;;14.57;;
65613;SDS011;52283;49.292;10.572;2024-03-02T04:06:24;31.50;;;14.13;;
65613;SDS011;52283;49.292;10.572;2024-03-02T04:08:51;35.78;;;14.43;;
65613;SDS011;52283;49.292;10.572;2024-03-02T04:11:21;31.67;;;13.55;;
65613;SDS011;52283;49.292;10.572;2024-03-02T04:13:47;34.13;;;14.07;;
65613;SDS011;52283;49.292;10.572;2024-03-02T04:16:14;31.58;;;15.00;;
65613;SDS011;52283;49.292;10.572;2024-03-02T04:18:44;35.40;;;15.75;;
65613;SDS011;52283;49.292;10.572;2024-03-02T04:21:10;37.08;;;14.20;;
65613;SDS011;52283;49.292;10.572;2024-03-02T04:23:38;33.65;;;13.05;;
65613;SDS011;52283;49.292;10.572;2024-03-02T04:26:05;36.35;;;14.80;;
65613;SDS011;52283;49.292;10.572;2024-03-02T04:28:32;36.05;;;15.25;;
65613;SDS011;52283;49.292;10.572;2024-03-02T04:30:59;36.28;;;14.40;;
65613;SDS011;52283;49.292;10.572;2024-03-02T04:33:25;38.42;;;15.23;;
65613;SDS011;52283;49.292;10.572;2024-03-02T04:35:52;34.20;;;13.75;;
65613;SDS011;52283;49.292;10.572;2024-03-02T04:38:18;30.17;;;13.00;;
65613;SDS011;52283;49.292;10.572;2024-03-02T04:40:47;35.10;;;14.35;;
65613;SDS011;52283;49.292;10.572;2024-03-02T04:43:13;34.30;;;15.07;;
65613;SDS011;52283;49.292;10.572;2024-03-02T04:45:42;35.45;;;15.45;;
65613;SDS011;52283;49.292;10.572;2024-03-02T04:48:09;38.95;;;15.25;;
65613;SDS011;52283;49.292;10.572;2024-03-02T04:50:35;34.17;;;14.98;;
65613;SDS011;52283;49.292;10.572;2024-03-02T04:53:02;37.40;;;14.95;;
65613;SDS011;52283;49.292;10.572;2024-03-02T04:55:32;35.15;;;15.43;;
65613;SDS011;52283;49.292;10.572;2024-03-02T04:58:30;31.98;;;15.20;;
65613;SDS011;52283;49.292;10.572;2024-03-02T05:00:57;33.88;;;14.50;;
65613;SDS011;52283;49.292;10.572;2024-03-02T05:03:26;37.55;;;16.13;;
65613;SDS011;52283;49.292;10.572;2024-03-02T05:05:52;34.60;;;14.43;;
65613;SDS011;52283;49.292;10.572;2024-03-02T05:08:19;37.75;;;15.57;;
65613;SDS011;52283;49.292;10.572;2024-03-02T05:10:46;39.17;;;15.82;;
65613;SDS011;52283;49.292;10.572;2024-03-02T05:13:12;39.35;;;16.35;;
65613;SDS011;52283;49.292;10.572;2024-03-02T05:15:39;38.22;;;16.02;;
65613;SDS011;52283;49.292;10.572;2024-03-02T05:18:06;34.60;;;14.07;;
65613;SDS011;52283;49.292;10.572;2024-03-02T05:20:33;40.53;;;18.50;;
65613;SDS011;52283;49.292;10.572;2024-03-02T05:22:59;37.53;;;14.95;;
65613;SDS011;52283;49.292;10.572;2024-03-02T05:25:26;38.10;;;15.75;;
65613;SDS011;52283;49.292;10.572;2024-03-02T05:27:53;42.42;;;16.20;;
65613;SDS011;52283;49.292;10.572;2024-03-02T05:30:19;39.13;;;15.77;;
65613;SDS011;52283;49.292;10.572;2024-03-02T05:32:48;41.08;;;15.98;;
65613;SDS011;52283;49.292;10.572;2024-03-02T05:35:14;41.00;;;16.70;;
65613;SDS011;52283;49.292;10.572;2024-03-02T05:37:41;40.08;;;15.27;;
65613;SDS011;52283;49.292;10.572;2024-03-02T05:40:08;39.60;;;17.38;;
65613;SDS011;52283;49.292;10.572;2024-03-02T05:42:36;43.60;;;17.48;;
65613;SDS011;52283;49.292;10.572;2024-03-02T05:45:03;39.08;;;16.67;;
65613;SDS011;52283;49.292;10.572;2024-03-02T05:47:33;38.33;;;15.60;;
65613;SDS011;52283;49.292;10.572;2024-03-02T05:50:01;33.60;;;15.65;;
65613;SDS011;52283;49.292;10.572;2024-03-02T05:52:28;43.72;;;17.35;;
65613;SDS011;52283;49.292;10.572;2024-03-02T05:54:55;38.20;;;16.50;;
65613;SDS011;52283;49.292;10.572;2024-03-02T05:57:22;39.38;;;17.92;;
65613;SDS011;52283;49.292;10.572;2024-03-02T06:00:04;38.33;;;16.50;;
65613;SDS011;52283;49.292;10.572;2024-03-02T06:02:33;40.80;;;17.08;;
65613;SDS011;52283;49.292;10.572;2024-03-02T06:05:01;41.67;;;16.83;;
65613;SDS011;52283;49.292;10.572;2024-03-02T06:07:29;39.45;;;16.60;;
65613;SDS011;52283;49.292;10.572;2024-03-02T06:09:56;32.30;;;14.90;;
65613;SDS011;52283;49.292;10.572;2024-03-02T06:12:25;34.10;;;15.15;;
65613;SDS011;52283;49.292;10.572;2024-03-02T06:14:52;44.55;;;16.30;;
65613;SDS011;52283;49.292;10.572;2024-03-02T06:17:19;41.90;;;18.55;;
65613;SDS011;52283;49.292;10.572;2024-03-02T06:19:45;38.08;;;16.92;;
65613;SDS011;52283;49.292;10.572;2024-03-02T06:22:14;41.75;;;17.27;;
65613;SDS011;52283;49.292;10.572;2024-03-02T06:24:41;44.78;;;19.80;;
65613;SDS011;52283;49.292;10.572;2024-03-02T06:27:08;50.30;;;20.10;;
65613;SDS011;52283;49.292;10.572;2024-03-02T06:29:34;42.60;;;18.73;;
65613;SDS011;52283;49.292;10.572;2024-03-02T06:32:01;41.17;;;17.05;;
65613;SDS011;52283;49.292;10.572;2024-03-02T06:34:27;42.42;;;17.27;;
65613;SDS011;52283;49.292;10.572;2024-03-02T06:36:54;45.58;;;18.02;;
65613;SDS011;52283;49.292;10.572;2024-03-02T06:39:22;46.67;;;17.20;;
65613;SDS011;52283;49.292;10.572;2024-03-02T06:41:48;42.45;;;18.02;;
65613;SDS011;52283;49.292;10.572;2024-03-02T06:44:15;46.55;;;18.30;;
65613;SDS011;52283;49.292;10.572;2024-03-02T06:46:41;45.13;;;18.33;;
65613;SDS011;52283;49.292;10.572;2024-03-02T06:49:08;38.40;;;15.95;;
65613;SDS011;52283;49.292;10.572;2024-03-02T06:51:35;38.13;;;15.23;;
65613;SDS011;52283;49.292;10.572;2024-03-02T06:54:02;42.28;;;17.30;;
65613;SDS011;52283;49.292;10.572;2024-03-02T06:56:30;42.42;;;19.35;;
65613;SDS011;52283;49.292;10.572;2024-03-02T06:58:58;40.15;;;16.23;;
65613;SDS011;52283;49.292;10.572;2024-03-02T07:01:24;32.92;;;14.70;;
65613;SDS011;52283;49.292;10.572;2024-03-02T07:03:51;35.63;;;16.42;;
65613;SDS011;52283;49.292;10.572;2024-03-02T07:06:18;40.78;;;15.95;;
65613;SDS011;52283;49.292;10.572;2024-03-02T07:08:44;37.65;;;14.55;;
65613;SDS011;52283;49.292;10.572;2024-03-02T07:11:11;34.25;;;14.70;;
65613;SDS011;52283;49.292;10.572;2024-03-02T07:13:39;35.70;;;15.55;;
65613;SDS011;52283;49.292;10.572;2024-03-02T07:16:06;38.35;;;16.38;;
65613;SDS011;52283;49.292;10.572;2024-03-02T07:18:49;32.20;;;13.75;;
65613;SDS011;52283;49.292;10.572;2024-03-02T07:21:17;29.15;;;13.60;;
65613;SDS011;52283;49.292;10.572;2024-03-02T07:23:44;33.35;;;14.80;;
65613;SDS011;52283;49.292;10.572;2024-03-02T07:26:10;32.85;;;16.52;;
65613;SDS011;52283;49.292;10.572;2024-03-02T07:28:38;28.33;;;14.45;;
65613;SDS011;52283;49.292;10.572;2024-03-02T07:31:05;29.20;;;14.23;;
65613;SDS011;52283;49.292;10.572;2024-03-02T07:33:32;29.13;;;13.98;;
65613;SDS011;52283;49.292;10.572;2024-03-02T07:35:59;31.45;;;14.73;;
65613;SDS011;52283;49.292;10.572;2024-03-02T07:38:27;29.40;;;14.60;;
65613;SDS011;52283;49.292;10.572;2024-03-02T07:40:54;29.80;;;14.88;;
65613;SDS011;52283;49.292;10.572;2024-03-02T07:43:21;30.70;;;15.23;;
65613;SDS011;52283;49.292;10.572;2024-03-02T07:45:50;31.38;;;14.63;;
65613;SDS011;52283;49.292;10.572;2024-03-02T07:48:16;34.58;;;15.68;;
65613;SDS011;52283;49.292;10.572;2024-03-02T07:50:43;28.30;;;14.00;;
65613;SDS011;52283;49.292;10.572;2024-03-02T07:53:10;29.08;;;15.88;;
65613;SDS011;52283;49.292;10.572;2024-03-02T07:55:36;32.05;;;14.43;;
65613;SDS011;52283;49.292;10.572;2024-03-02T07:58:03;31.42;;;14.57;;
65613;SDS011;52283;49.292;10.572;2024-03-02T08:00:30;27.77;;;15.00;;
65613;SDS011;52283;49.292;10.572;2024-03-02T08:02:58;27.40;;;14.77;;
65613;SDS011;52283;49.292;10.572;2024-03-02T08:05:25;28.15;;;15.02;;
65613;SDS011;52283;49.292;10.572;2024-03-02T08:07:52;27.15;;;15.05;;
65613;SDS011;52283;49.292;10.572;2024-03-02T08:10:19;23.10;;;11.77;;
65613;SDS011;52283;49.292;10.572;2024-03-02T08:12:46;28.40;;;13.57;;
65613;SDS011;52283;49.292;10.572;2024-03-02T08:15:12;27.48;;;14.00;;
65613;SDS011;52283;49.292;10.572;2024-03-02T08:17:39;24.77;;;13.13;;
65613;SDS011;52283;49.292;10.572;2024-03-02T08:20:11;22.52;;;12.40;;
65613;SDS011;52283;49.292;10.572;2024-03-02T08:22:38;23.00;;;14.25;;
65613;SDS011;52283;49.292;10.572;2024-03-02T08:25:05;19.58;;;11.63;;
65613;SDS011;52283;49.292;10.572;2024-03-02T08:27:32;18.88;;;11.23;;
65613;SDS011;52283;49.292;10.572;2024-03-02T08:29:58;21.23;;;11.35;;
65613;SDS011;52283;49.292;10.572;2024-03-02T08:32:25;18.13;;;11.65;;
65613;SDS011;52283;49.292;10.572;2024-03-02T08:34:51;17.67;;;10.93;;
65613;SDS011;52283;49.292;10.572;2024-03-02T08:37:19;18.48;;;10.60;;
65613;SDS011;52283;49.292;10.572;2024-03-02T08:39:46;19.88;;;11.65;;
65613;SDS011;52283;49.292;10.572;2024-03-02T08:42:13;19.55;;;11.40;;
65613;SDS011;52283;49.292;10.572;2024-03-02T08:44:39;16.88;;;10.30;;
65613;SDS011;52283;49.292;10.572;2024-03-02T08:47:06;18.52;;;10.80;;
65613;SDS011;52283;49.292;10.572;2024-03-02T08:49:32;16.52;;;10.30;;
65613;SDS011;52283;49.292;10.572;2024-03-02T08:51:59;17.73;;;10.75;;
65613;SDS011;52283;49.292;10.572;2024-03-02T08:54:27;18.85;;;10.80;;
65613;SDS011;52283;49.292;10.572;2024-03-02T08:56:53;17.58;;;10.10;;
65613;SDS011;52283;49.292;10.572;2024-03-02T08:59:20;16.60;;;10.32;;
65613;SDS011;52283;49.292;10.572;2024-03-02T09:01:46;17.08;;;9.18;;
65613;SDS011;52283;49.292;10.572;2024-03-02T09:04:13;14.77;;;9.00;;
65613;SDS011;52283;49.292;10.572;2024-03-02T09:06:40;15.60;;;8.70;;
65613;SDS011;52283;49.292;10.572;2024-03-02T09:09:06;13.77;;;8.85;;
65613;SDS011;52283;49.292;10.572;2024-03-02T09:11:34;13.05;;;8.30;;
65613;SDS011;52283;49.292;10.572;2024-03-02T09:14:01;14.35;;;8.85;;
65613;SDS011;52283;49.292;10.572;2024-03-02T09:16:28;11.77;;;7.75;;
65613;SDS011;52283;49.292;10.572;2024-03-02T09:18:56;12.13;;;8.45;;
65613;SDS011;52283;49.292;10.572;2024-03-02T09:21:23;13.63;;;7.45;;
65613;SDS011;52283;49.292;10.572;2024-03-02T09:23:50;10.77;;;7.03;;
65613;SDS011;52283;49.292;10.572;2024-03-02T09:26:17;12.40;;;7.47;;
65613;SDS011;52283;49.292;10.572;2024-03-02T09:28:46;13.52;;;7.10;;
65613;SDS011;52283;49.292;10.572;2024-03-02T09:31:12;11.25;;;6.82;;
65613;SDS011;52283;49.292;10.572;2024-03-02T09:33:39;15.63;;;7.45;;
65613;SDS011;52283;49.292;10.572;2024-03-02T09:36:05;12.82;;;6.97;;
65613;SDS011;52283;49.292;10.572;2024-03-02T09:38:42;10.32;;;6.78;;
65613;SDS011;52283;49.292;10.572;2024-03-02T09:41:08;11.32;;;6.80;;
65613;SDS011;52283;49.292;10.572;2024-03-02T09:43:35;11.60;;;7.00;;
65613;SDS011;52283;49.292;10.572;2024-03-02T09:46:03;8.65;;;5.78;;
65613;SDS011;52283;49.292;10.572;2024-03-02T09:48:29;10.88;;;6.45;;
65613;SDS011;52283;49.292;10.572;2024-03-02T09:50:56;9.10;;;6.40;;
65613;SDS011;52283;49.292;10.572;2024-03-02T09:53:23;8.43;;;5.80;;
65613;SDS011;52283;49.292;10.572;2024-03-02T09:55:50;7.60;;;5.95;;
65613;SDS011;52283;49.292;10.572;2024-03-02T09:58:17;7.53;;;4.70;;
65613;SDS011;52283;49.292;10.572;2024-03-02T10:00:43;8.38;;;5.22;;
65613;SDS011;52283;49.292;10.572;2024-03-02T10:03:12;8.90;;;5.03;;
65613;SDS011;52283;49.292;10.572;2024-03-02T10:05:39;7.88;;;5.47;;
65613;SDS011;52283;49.292;10.572;2024-03-02T10:08:06;7.35;;;5.15;;
65613;SDS011;52283;49.292;10.572;2024-03-02T10:10:36;10.70;;;5.55;;
65613;SDS011;52283;49.292;10.572;2024-03-02T10:13:05;7.07;;;4.65;;
65613;SDS011;52283;49.292;10.572;2024-03-02T10:15:32;7.35;;;4.93;;
65613;SDS011;52283;49.292;10.572;2024-03-02T10:17:58;7.80;;;4.78;;
65613;SDS011;52283;49.292;10.572;2024-03-02T10:20:27;8.38;;;4.72;;
65613;SDS011;52283;49.292;10.572;2024-03-02T10:22:54;6.65;;;4.20;;
65613;SDS011;52283;49.292;10.572;2024-03-02T10:25:30;6.97;;;4.78;;
65613;SDS011;52283;49.292;10.572;2024-03-02T10:27:57;6.57;;;3.80;;
65613;SDS011;52283;49.292;10.572;2024-03-02T10:30:25;4.60;;;3.40;;
65613;SDS011;52283;49.292;10.572;2024-03-02T10:32:52;6.55;;;3.58;;
65613;SDS011;52283;49.292;10.572;2024-03-02T10:35:19;4.20;;;3.70;;
65613;SDS011;52283;49.292;10.572;2024-03-02T10:37:48;8.93;;;3.70;;
65613;SDS011;52283;49.292;10.572;2024-03-02T10:40:15;5.60;;;2.78;;
65613;SDS011;52283;49.292;10.572;2024-03-02T10:42:42;5.20;;;2.83;;
65613;SDS011;52283;49.292;10.572;2024-03-02T10:45:10;4.72;;;4.10;;
65613;SDS011;52283;49.292;10.572;2024-03-02T10:47:38;7.10;;;3.70;;
65613;SDS011;52283;49.292;10.572;2024-03-02T10:50:08;5.05;;;3.72;;
65613;SDS011;52283;49.292;10.572;2024-03-02T10:52:35;5.45;;;3.83;;
65613;SDS011;52283;49.292;10.572;2024-03-02T10:55:04;3.47;;;2.50;;
65613;SDS011;52283;49.292;10.572;2024-03-02T10:57:33;5.70;;;2.67;;
65613;SDS011;52283;49.292;10.572;2024-03-02T11:00:08;4.68;;;3.00;;
65613;SDS011;52283;49.292;10.572;2024-03-02T11:02:40;4.30;;;2.65;;
65613;SDS011;52283;49.292;10.572;2024-03-02T11:05:13;2.92;;;2.28;;
65613;SDS011;52283;49.292;10.572;2024-03-02T11:07:50;4.80;;;2.70;;
65613;SDS011;52283;49.292;10.572;2024-03-02T11:10:20;3.60;;;2.83;;
65613;SDS011;52283;49.292;10.572;2024-03-02T11:12:50;7.15;;;3.42;;
65613;SDS011;52283;49.292;10.572;2024-03-02T11:15:22;6.85;;;3.88;;
65613;SDS011;52283;49.292;10.572;2024-03-02T11:17:51;5.57;;;3.60;;
65613;SDS011;52283;49.292;10.572;2024-03-02T11:20:19;4.18;;;2.78;;
65613;SDS011;52283;49.292;10.572;2024-03-02T11:22:46;5.70;;;3.03;;
65613;SDS011;52283;49.292;10.572;2024-03-02T11:25:23;4.45;;;3.00;;
65613;SDS011;52283;49.292;10.572;2024-03-02T11:28:00;6.30;;;3.97;;
65613;SDS011;52283;49.292;10.572;2024-03-02T11:33:24;5.13;;;3.00;;
65613;SDS011;52283;49.292;10.572;2024-03-02T11:35:52;4.60;;;3.00;;
65613;SDS011;52283;49.292;10.572;2024-03-02T11:38:19;3.85;;;3.08;;
65613;SDS011;52283;49.292;10.572;2024-03-02T11:40:47;4.65;;;3.15;;
65613;SDS011;52283;49.292;10.572;2024-03-02T11:43:14;5.07;;;3.78;;
65613;SDS011;52283;49.292;10.572;2024-03-02T11:45:41;3.97;;;2.95;;
65613;SDS011;52283;49.292;10.572;2024-03-02T11:48:10;3.55;;;3.13;;
65613;SDS011;52283;49.292;10.572;2024-03-02T11:50:39;4.85;;;3.10;;
65613;SDS011;52283;49.292;10.572;2024-03-02T11:53:07;4.70;;;2.88;;
65613;SDS011;52283;49.292;10.572;2024-03-02T11:55:35;5.25;;;3.13;;
65613;SDS011;52283;49.292;10.572;2024-03-02T11:58:04;6.88;;;5.18;;
65613;SDS011;52283;49.292;10.572;2024-03-02T12:00:30;6.05;;;4.05;;
65613;SDS011;52283;49.292;10.572;2024-03-02T12:02:59;8.00;;;3.60;;
65613;SDS011;52283;49.292;10.572;2024-03-02T12:05:26;5.85;;;3.72;;
65613;SDS011;52283;49.292;10.572;2024-03-02T12:07:55;4.15;;;3.60;;
65613;SDS011;52283;49.292;10.572;2024-03-02T12:10:22;6.60;;;4.45;;
65613;SDS011;52283;49.292;10.572;2024-03-02T12:12:54;4.50;;;3.50;;
65613;SDS011;52283;49.292;10.572;2024-03-02T12:15:24;7.47;;;4.70;;
65613;SDS011;52283;49.292;10.572;2024-03-02T12:17:53;6.50;;;3.67;;
65613;SDS011;52283;49.292;10.572;2024-03-02T12:20:20;6.45;;;4.18;;
65613;SDS011;52283;49.292;10.572;2024-03-02T12:22:46;5.70;;;3.78;;
65613;SDS011;52283;49.292;10.572;2024-03-02T12:25:13;4.47;;;3.47;;
65613;SDS011;52283;49.292;10.572;2024-03-02T12:27:40;6.53;;;4.05;;
65613;SDS011;52283;49.292;10.572;2024-03-02T12:30:06;6.55;;;3.78;;
65613;SDS011;52283;49.292;10.572;2024-03-02T12:32:37;5.10;;;3.95;;
65613;SDS011;52283;49.292;10.572;2024-03-02T12:35:04;5.15;;;3.90;;
65613;SDS011;52283;49.292;10.572;2024-03-02T12:37:31;5.03;;;3.72;;
65613;SDS011;52283;49.292;10.572;2024-03-02T12:39:58;5.95;;;3.70;;
65613;SDS011;52283;49.292;10.572;2024-03-02T12:42:25;5.15;;;3.28;;
65613;SDS011;52283;49.292;10.572;2024-03-02T12:44:52;7.88;;;4.03;;
65613;SDS011;52283;49.292;10.572;2024-03-02T12:47:20;6.85;;;3.65;;
65613;SDS011;52283;49.292;10.572;2024-03-02T12:49:48;6.22;;;4.47;;
65613;SDS011;52283;49.292;10.572;2024-03-02T12:52:17;7.32;;;4.45;;
65613;SDS011;52283;49.292;10.572;2024-03-02T12:54:44;6.88;;;4.60;;
65613;SDS011;52283;49.292;10.572;2024-03-02T12:57:10;6.63;;;4.68;;
65613;SDS011;52283;49.292;10.572;2024-03-02T12:59:44;7.60;;;4.07;;
65613;SDS011;52283;49.292;10.572;2024-03-02T13:02:16;7.50;;;4.70;;
65613;SDS011;52283;49.292;10.572;2024-03-02T13:07:11;7.93;;;5.10;;
65613;SDS011;52283;49.292;10.572;2024-03-02T13:09:39;5.50;;;4.10;;
65613;SDS011;52283;49.292;10.572;2024-03-02T13:12:05;7.70;;;4.78;;
65613;SDS011;52283;49.292;10.572;2024-03-02T13:14:32;6.88;;;4.30;;
65613;SDS011;52283;49.292;10.572;2024-03-02T13:17:00;8.60;;;4.70;;
65613;SDS011;52283;49.292;10.572;2024-03-02T13:19:29;9.02;;;5.00;;
65613;SDS011;52283;49.292;10.572;2024-03-02T13:21:56;11.77;;;6.60;;
65613;SDS011;52283;49.292;10.572;2024-03-02T13:24:24;10.15;;;5.75;;
65613;SDS011;52283;49.292;10.572;2024-03-02T13:26:53;10.85;;;5.93;;
65613;SDS011;52283;49.292;10.572;2024-03-02T13:29:23;12.13;;;6.13;;
65613;SDS011;52283;49.292;10.572;2024-03-02T13:31:50;11.32;;;7.53;;
65613;SDS011;52283;49.292;10.572;2024-03-02T13:34:16;9.50;;;4.70;;
65613;SDS011;52283;49.292;10.572;2024-03-02T13:36:43;10.77;;;5.38;;
65613;SDS011;52283;49.292;10.572;2024-03-02T13:39:10;11.57;;;6.35;;
65613;SDS011;52283;49.292;10.572;2024-03-02T13:41:41;9.93;;;6.35;;
65613;SDS011;52283;49.292;10.572;2024-03-02T13:44:16;10.65;;;7.32;;
65613;SDS011;52283;49.292;10.572;2024-03-02T13:46:43;11.25;;;7.15;;
65613;SDS011;52283;49.292;10.572;2024-03-02T13:49:10;13.55;;;8.15;;
65613;SDS011;52283;49.292;10.572;2024-03-02T13:51:37;19.08;;;10.18;;
65613;SDS011;52283;49.292;10.572;2024-03-02T13:54:04;15.27;;;8.27;;
65613;SDS011;52283;49.292;10.572;2024-03-02T13:56:30;14.35;;;8.52;;
65613;SDS011;52283;49.292;10.572;2024-03-02T13:58:59;14.88;;;9.27;;
65613;SDS011;52283;49.292;10.572;2024-03-02T14:01:25;14.82;;;9.48;;
65613;SDS011;52283;49.292;10.572;2024-03-02T14:03:52;15.20;;;9.00;;
65613;SDS011;52283;49.292;10.572;2024-03-02T14:06:19;16.13;;;8.77;;
65613;SDS011;52283;49.292;10.572;2024-03-02T14:08:46;13.27;;;8.25;;
65613;SDS011;52283;49.292;10.572;2024-03-02T14:11:14;10.77;;;6.63;;
65613;SDS011;52283;49.292;10.572;2024-03-02T14:13:41;14.25;;;7.65;;
65613;SDS011;52283;49.292;10.572;2024-03-02T14:16:10;12.57;;;8.00;;
65613;SDS011;52283;49.292;10.572;2024-03-02T14:18:37;11.13;;;6.22;;
65613;SDS011;52283;49.292;10.572;2024-03-02T14:21:03;14.07;;;8.88;;
65613;SDS011;52283;49.292;10.572;2024-03-02T14:23:30;14.18;;;8.55;;
65613;SDS011;52283;49.292;10.572;2024-03-02T14:25:56;15.60;;;8.48;;